sensor_id;sensor_type;location;lat;lon;timestamp;pressure;altitude;pressure_sealevel;temperature;humidity
17505;BME280;8870;50.950;11.762;2023-11-21T00:02:02;97942.75;;;6.35;100.00
17505;BME280;8870;50.950;11.762;2023-11-21T00:07:23;97942.91;;;6.34;100.00
17505;BME280;8870;50.950;11.762;2023-11-21T00:12:54;97941.06;;;6.34;100.00
17505;BME280;8870;50.950;11.762;2023-11-21T00:18:13;97942.47;;;6.38;100.00
17505;BME280;8870;50.950;11.762;2023-11-21T00:23:46;97951.88;;;6.42;100.00
17505;BME280;8870;50.950;11.762;2023-11-21T00:29:05;97959.78;;;6.44;100.00
17505;BME280;8870;50.950;11.762;2023-11-21T00:34:39;97956.25;;;6.43;100.00
17505;BME280;8870;50.950;11.762;2023-11-21T00:39:59;97953.03;;;6.40;100.00
17505;BME280;8870;50.950;11.762;2023-11-21T00:45:31;97953.19;;;6.38;100.00
17505;BME280;8870;50.950;11.762;2023-11-21T00:50:50;97952.31;;;6.38;100.00
17505;BME280;8870;50.950;11.762;2023-11-21T00:56:24;97953.03;;;6.40;100.00
17505;BME280;8870;50.950;11.762;2023-11-21T01:01:43;97962.44;;;6.44;100.00
17505;BME280;8870;50.950;11.762;2023-11-21T01:07:16;97959.47;;;6.47;100.00
17505;BME280;8870;50.950;11.762;2023-11-21T01:12:38;97978.44;;;6.54;100.00
17505;BME280;8870;50.950;11.762;2023-11-21T01:18:11;97976.19;;;6.59;100.00
17505;BME280;8870;50.950;11.762;2023-11-21T01:23:29;97976.88;;;6.61;100.00
17505;BME280;8870;50.950;11.762;2023-11-21T01:29:03;97983.94;;;6.62;100.00
17505;BME280;8870;50.950;11.762;2023-11-21T01:34:21;97986.59;;;6.62;100.00
17505;BME280;8870;50.950;11.762;2023-11-21T01:39:53;97980.13;;;6.65;100.00
17505;BME280;8870;50.950;11.762;2023-11-21T01:45:14;97987.16;;;6.66;100.00
17505;BME280;8870;50.950;11.762;2023-11-21T01:50:47;98000.38;;;6.67;100.00
17505;BME280;8870;50.950;11.762;2023-11-21T01:56:12;97998.56;;;6.68;100.00
17505;BME280;8870;50.950;11.762;2023-11-21T02:01:46;98007.41;;;6.68;100.00
17505;BME280;8870;50.950;11.762;2023-11-21T02:07:05;97999.38;;;6.68;100.00
17505;BME280;8870;50.950;11.762;2023-11-21T02:12:37;98009.13;;;6.69;100.00
17505;BME280;8870;50.950;11.762;2023-11-21T02:17:58;98005.72;;;6.67;100.00
17505;BME280;8870;50.950;11.762;2023-11-21T02:23:35;97999.56;;;6.67;100.00
17505;BME280;8870;50.950;11.762;2023-11-21T02:28:57;98014.75;;;6.66;100.00
17505;BME280;8870;50.950;11.762;2023-11-21T02:34:33;98009.28;;;6.68;100.00
17505;BME280;8870;50.950;11.762;2023-11-21T02:39:54;98012.78;;;6.68;100.00
17505;BME280;8870;50.950;11.762;2023-11-21T02:45:26;98016.16;;;6.70;100.00
17505;BME280;8870;50.950;11.762;2023-11-21T02:50:44;98010.81;;;6.70;100.00
17505;BME280;8870;50.950;11.762;2023-11-21T02:56:17;98003.59;;;6.71;100.00
17505;BME280;8870;50.950;11.762;2023-11-21T03:01:37;98002.78;;;6.70;100.00
17505;BME280;8870;50.950;11.762;2023-11-21T03:07:11;97995.44;;;6.72;100.00
17505;BME280;8870;50.950;11.762;2023-11-21T03:12:32;98002.31;;;6.75;100.00
17505;BME280;8870;50.950;11.762;2023-11-21T03:18:06;98007.41;;;6.78;100.00
17505;BME280;8870;50.950;11.762;2023-11-21T03:23:24;98013.56;;;6.78;100.00
17505;BME280;8870;50.950;11.762;2023-11-21T03:28:57;98014.72;;;6.76;100.00
17505;BME280;8870;50.950;11.762;2023-11-21T03:34:22;98019.91;;;6.77;100.00
17505;BME280;8870;50.950;11.762;2023-11-21T03:39:54;98030.63;;;6.77;100.00
17505;BME280;8870;50.950;11.762;2023-11-21T03:45:28;98025.44;;;6.76;100.00
17505;BME280;8870;50.950;11.762;2023-11-21T03:50:47;98017.84;;;6.71;100.00
17505;BME280;8870;50.950;11.762;2023-11-21T03:56:18;98020.00;;;6.58;100.00
17505;BME280;8870;50.950;11.762;2023-11-21T04:01:39;98032.47;;;6.39;100.00
17505;BME280;8870;50.950;11.762;2023-11-21T04:07:10;98032.03;;;6.34;100.00
17505;BME280;8870;50.950;11.762;2023-11-21T04:12:28;98030.91;;;6.37;100.00
17505;BME280;8870;50.950;11.762;2023-11-21T04:18:02;98028.66;;;6.42;100.00
17505;BME280;8870;50.950;11.762;2023-11-21T04:23:20;98033.03;;;6.33;100.00
17505;BME280;8870;50.950;11.762;2023-11-21T04:28:51;98038.53;;;6.22;100.00
17505;BME280;8870;50.950;11.762;2023-11-21T04:34:12;98035.03;;;6.11;100.00
17505;BME280;8870;50.950;11.762;2023-11-21T04:39:43;98044.63;;;6.04;100.00
17505;BME280;8870;50.950;11.762;2023-11-21T04:45:14;98040.78;;;5.87;100.00
17505;BME280;8870;50.950;11.762;2023-11-21T04:50:35;98054.00;;;5.79;100.00
17505;BME280;8870;50.950;11.762;2023-11-21T04:56:07;98060.47;;;5.76;100.00
17505;BME280;8870;50.950;11.762;2023-11-21T05:01:25;98063.31;;;5.75;100.00
17505;BME280;8870;50.950;11.762;2023-11-21T05:07:01;98066.09;;;5.73;100.00
17505;BME280;8870;50.950;11.762;2023-11-21T05:12:19;98074.25;;;5.71;100.00
17505;BME280;8870;50.950;11.762;2023-11-21T05:17:50;98078.06;;;5.69;100.00
17505;BME280;8870;50.950;11.762;2023-11-21T05:23:12;98092.53;;;5.66;100.00
17505;BME280;8870;50.950;11.762;2023-11-21T05:28:43;98095.75;;;5.50;100.00
17505;BME280;8870;50.950;11.762;2023-11-21T05:34:01;98095.72;;;5.40;100.00
17505;BME280;8870;50.950;11.762;2023-11-21T05:39:36;98085.84;;;5.31;100.00
17505;BME280;8870;50.950;11.762;2023-11-21T05:45:09;98095.97;;;5.28;100.00
17505;BME280;8870;50.950;11.762;2023-11-21T05:50:28;98103.66;;;5.21;100.00
17505;BME280;8870;50.950;11.762;2023-11-21T05:56:03;98102.38;;;5.15;100.00
17505;BME280;8870;50.950;11.762;2023-11-21T06:01:22;98111.50;;;5.13;100.00
17505;BME280;8870;50.950;11.762;2023-11-21T06:06:53;98107.56;;;5.07;100.00
17505;BME280;8870;50.950;11.762;2023-11-21T06:12:14;98128.59;;;5.00;100.00
17505;BME280;8870;50.950;11.762;2023-11-21T06:17:45;98126.19;;;4.97;100.00
17505;BME280;8870;50.950;11.762;2023-11-21T06:23:07;98137.84;;;4.96;100.00
17505;BME280;8870;50.950;11.762;2023-11-21T06:28:41;98142.75;;;4.91;100.00
17505;BME280;8870;50.950;11.762;2023-11-21T06:34:01;98149.56;;;4.84;100.00
17505;BME280;8870;50.950;11.762;2023-11-21T06:39:34;98155.78;;;4.84;100.00
17505;BME280;8870;50.950;11.762;2023-11-21T06:45:09;98174.31;;;4.86;100.00
17505;BME280;8870;50.950;11.762;2023-11-21T06:50:28;98182.78;;;4.91;100.00
17505;BME280;8870;50.950;11.762;2023-11-21T06:55:59;98212.00;;;4.92;100.00
17505;BME280;8870;50.950;11.762;2023-11-21T07:01:20;98203.28;;;4.90;100.00
17505;BME280;8870;50.950;11.762;2023-11-21T07:06:52;98201.72;;;4.88;100.00
17505;BME280;8870;50.950;11.762;2023-11-21T07:12:11;98213.00;;;4.91;100.00
17505;BME280;8870;50.950;11.762;2023-11-21T07:17:48;98219.03;;;4.93;100.00
17505;BME280;8870;50.950;11.762;2023-11-21T07:23:07;98222.44;;;4.96;100.00
17505;BME280;8870;50.950;11.762;2023-11-21T07:28:39;98234.56;;;5.00;100.00
17505;BME280;8870;50.950;11.762;2023-11-21T07:34:01;98234.28;;;5.03;100.00
17505;BME280;8870;50.950;11.762;2023-11-21T07:39:34;98243.88;;;5.05;100.00
17505;BME280;8870;50.950;11.762;2023-11-21T07:45:00;98246.16;;;5.10;100.00
17505;BME280;8870;50.950;11.762;2023-11-21T07:50:28;98255.47;;;5.16;100.00
17505;BME280;8870;50.950;11.762;2023-11-21T07:55:47;98271.09;;;5.20;100.00
17505;BME280;8870;50.950;11.762;2023-11-21T08:01:19;98269.81;;;5.24;100.00
17505;BME280;8870;50.950;11.762;2023-11-21T08:06:41;98275.16;;;5.24;100.00
17505;BME280;8870;50.950;11.762;2023-11-21T08:12:13;98286.47;;;5.28;100.00
17505;BME280;8870;50.950;11.762;2023-11-21T08:17:32;98291.41;;;5.33;100.00
17505;BME280;8870;50.950;11.762;2023-11-21T08:23:07;98296.22;;;5.39;100.00
17505;BME280;8870;50.950;11.762;2023-11-21T08:28:25;98303.72;;;5.45;100.00
17505;BME280;8870;50.950;11.762;2023-11-21T08:33:58;98300.50;;;5.51;100.00
17505;BME280;8870;50.950;11.762;2023-11-21T08:39:21;98301.81;;;5.57;100.00
17505;BME280;8870;50.950;11.762;2023-11-21T08:44:52;98306.75;;;5.62;100.00
17505;BME280;8870;50.950;11.762;2023-11-21T08:50:12;98314.50;;;5.65;100.00
17505;BME280;8870;50.950;11.762;2023-11-21T08:55:48;98321.28;;;5.69;100.00
17505;BME280;8870;50.950;11.762;2023-11-21T09:01:06;98329.03;;;5.72;100.00
17505;BME280;8870;50.950;11.762;2023-11-21T09:06:37;98335.22;;;5.73;100.00
17505;BME280;8870;50.950;11.762;2023-11-21T09:11:58;98326.94;;;5.76;100.00
17505;BME280;8870;50.950;11.762;2023-11-21T09:17:29;98343.28;;;5.82;100.00
17505;BME280;8870;50.950;11.762;2023-11-21T09:22:47;98351.03;;;5.85;100.00
17505;BME280;8870;50.950;11.762;2023-11-21T09:28:21;98354.28;;;5.89;100.00
17505;BME280;8870;50.950;11.762;2023-11-21T09:33:39;98353.31;;;5.90;100.00
17505;BME280;8870;50.950;11.762;2023-11-21T09:39:10;98358.25;;;5.95;100.00
17505;BME280;8870;50.950;11.762;2023-11-21T09:44:35;98364.22;;;5.98;100.00
17505;BME280;8870;50.950;11.762;2023-11-21T09:50:13;98365.03;;;5.99;100.00
17505;BME280;8870;50.950;11.762;2023-11-21T09:55:37;98369.56;;;5.98;100.00
17505;BME280;8870;50.950;11.762;2023-11-21T10:01:13;98372.84;;;6.02;100.00
17505;BME280;8870;50.950;11.762;2023-11-21T10:06:34;98384.81;;;6.08;100.00
17505;BME280;8870;50.950;11.762;2023-11-21T10:12:09;98382.59;;;6.13;100.00
17505;BME280;8870;50.950;11.762;2023-11-21T10:17:31;98392.03;;;6.17;100.00
17505;BME280;8870;50.950;11.762;2023-11-21T10:23:08;98389.38;;;6.17;100.00
17505;BME280;8870;50.950;11.762;2023-11-21T10:28:27;98392.03;;;6.17;100.00
17505;BME280;8870;50.950;11.762;2023-11-21T10:34:17;98394.47;;;6.20;100.00
17505;BME280;8870;50.950;11.762;2023-11-21T10:39:36;98406.72;;;6.23;100.00
17505;BME280;8870;50.950;11.762;2023-11-21T10:45:09;98406.31;;;6.27;100.00
17505;BME280;8870;50.950;11.762;2023-11-21T10:50:33;98410.16;;;6.35;100.00
17505;BME280;8870;50.950;11.762;2023-11-21T10:56:06;98413.97;;;6.42;100.00
17505;BME280;8870;50.950;11.762;2023-11-21T11:01:28;98412.84;;;6.44;100.00
17505;BME280;8870;50.950;11.762;2023-11-21T11:07:06;98411.47;;;6.50;100.00
17505;BME280;8870;50.950;11.762;2023-11-21T11:12:28;98417.13;;;6.57;100.00
17505;BME280;8870;50.950;11.762;2023-11-21T11:18:00;98423.66;;;6.64;100.00
17505;BME280;8870;50.950;11.762;2023-11-21T11:23:36;98434.22;;;6.66;100.00
17505;BME280;8870;50.950;11.762;2023-11-21T11:29:17;98436.72;;;6.67;100.00
17505;BME280;8870;50.950;11.762;2023-11-21T11:34:43;98442.50;;;6.62;100.00
17505;BME280;8870;50.950;11.762;2023-11-21T11:40:20;98441.53;;;6.63;100.00
17505;BME280;8870;50.950;11.762;2023-11-21T11:45:51;98452.09;;;6.65;100.00
17505;BME280;8870;50.950;11.762;2023-11-21T11:51:11;98450.41;;;6.64;100.00
17505;BME280;8870;50.950;11.762;2023-11-21T11:56:47;98448.97;;;6.60;100.00
17505;BME280;8870;50.950;11.762;2023-11-21T12:02:05;98456.88;;;6.61;100.00
17505;BME280;8870;50.950;11.762;2023-11-21T12:07:39;98461.50;;;6.59;100.00
17505;BME280;8870;50.950;11.762;2023-11-21T12:13:16;98468.69;;;6.59;100.00
17505;BME280;8870;50.950;11.762;2023-11-21T12:18:34;98477.97;;;6.55;100.00
17505;BME280;8870;50.950;11.762;2023-11-21T12:24:08;98470.97;;;6.32;100.00
17505;BME280;8870;50.950;11.762;2023-11-21T12:29:31;98479.50;;;6.16;100.00
17505;BME280;8870;50.950;11.762;2023-11-21T12:35:03;98479.31;;;5.97;100.00
17505;BME280;8870;50.950;11.762;2023-11-21T12:40:21;98491.31;;;5.81;100.00
17505;BME280;8870;50.950;11.762;2023-11-21T12:46:04;98491.16;;;5.62;100.00
17505;BME280;8870;50.950;11.762;2023-11-21T12:51:24;98487.59;;;5.40;100.00
17505;BME280;8870;50.950;11.762;2023-11-21T12:56:59;98490.31;;;5.29;100.00
17505;BME280;8870;50.950;11.762;2023-11-21T13:02:26;98506.84;;;5.22;100.00
17505;BME280;8870;50.950;11.762;2023-11-21T13:08:01;98499.09;;;5.19;100.00
17505;BME280;8870;50.950;11.762;2023-11-21T13:13:23;98506.75;;;5.13;100.00
17505;BME280;8870;50.950;11.762;2023-11-21T13:18:57;98519.38;;;5.11;100.00
17505;BME280;8870;50.950;11.762;2023-11-21T13:24:15;98512.09;;;5.01;100.00
17505;BME280;8870;50.950;11.762;2023-11-21T13:29:48;98517.69;;;4.87;100.00
17505;BME280;8870;50.950;11.762;2023-11-21T13:35:09;98520.00;;;4.80;100.00
17505;BME280;8870;50.950;11.762;2023-11-21T13:40:53;98525.84;;;4.74;100.00
17505;BME280;8870;50.950;11.762;2023-11-21T13:46:28;98530.91;;;4.66;100.00
17505;BME280;8870;50.950;11.762;2023-11-21T13:51:54;98539.88;;;4.65;100.00
17505;BME280;8870;50.950;11.762;2023-11-21T13:57:26;98549.72;;;4.64;100.00
17505;BME280;8870;50.950;11.762;2023-11-21T14:02:44;98557.88;;;4.62;100.00
17505;BME280;8870;50.950;11.762;2023-11-21T14:08:18;98566.22;;;4.58;100.00
17505;BME280;8870;50.950;11.762;2023-11-21T14:13:43;98569.50;;;4.50;100.00
17505;BME280;8870;50.950;11.762;2023-11-21T14:19:15;98582.22;;;4.46;100.00
17505;BME280;8870;50.950;11.762;2023-11-21T14:24:36;98583.91;;;4.47;100.00
17505;BME280;8870;50.950;11.762;2023-11-21T14:30:09;98583.56;;;4.41;100.00
17505;BME280;8870;50.950;11.762;2023-11-21T14:35:28;98593.94;;;4.32;100.00
17505;BME280;8870;50.950;11.762;2023-11-21T14:41:02;98600.72;;;4.25;100.00
17505;BME280;8870;50.950;11.762;2023-11-21T14:46:35;98609.66;;;4.13;100.00
17505;BME280;8870;50.950;11.762;2023-11-21T14:51:54;98613.75;;;4.06;100.00
17505;BME280;8870;50.950;11.762;2023-11-21T14:57:32;98625.06;;;3.96;100.00
17505;BME280;8870;50.950;11.762;2023-11-21T15:02:52;98640.28;;;3.83;100.00
17505;BME280;8870;50.950;11.762;2023-11-21T15:08:24;98660.34;;;3.76;100.00
17505;BME280;8870;50.950;11.762;2023-11-21T15:13:49;98661.66;;;3.70;100.00
17505;BME280;8870;50.950;11.762;2023-11-21T15:19:21;98677.44;;;3.60;100.00
17505;BME280;8870;50.950;11.762;2023-11-21T15:24:41;98683.38;;;3.39;100.00
17505;BME280;8870;50.950;11.762;2023-11-21T15:30:18;98681.69;;;3.26;100.00
17505;BME280;8870;50.950;11.762;2023-11-21T15:35:39;98690.31;;;3.29;100.00
17505;BME280;8870;50.950;11.762;2023-11-21T15:41:10;98690.84;;;3.34;100.00
17505;BME280;8870;50.950;11.762;2023-11-21T15:46:31;98714.06;;;3.32;100.00
17505;BME280;8870;50.950;11.762;2023-11-21T15:52:04;98721.50;;;3.27;100.00
17505;BME280;8870;50.950;11.762;2023-11-21T15:57:24;98722.47;;;3.26;100.00
17505;BME280;8870;50.950;11.762;2023-11-21T16:02:58;98731.66;;;3.22;100.00
17505;BME280;8870;50.950;11.762;2023-11-21T16:08:16;98740.69;;;3.19;100.00
17505;BME280;8870;50.950;11.762;2023-11-21T16:13:47;98739.09;;;3.17;100.00
17505;BME280;8870;50.950;11.762;2023-11-21T16:19:08;98756.97;;;3.15;100.00
17505;BME280;8870;50.950;11.762;2023-11-21T16:24:39;98750.19;;;3.11;100.00
17505;BME280;8870;50.950;11.762;2023-11-21T16:29:58;98766.16;;;3.11;100.00
17505;BME280;8870;50.950;11.762;2023-11-21T16:35:33;98769.78;;;3.10;100.00
17505;BME280;8870;50.950;11.762;2023-11-21T16:40:55;98781.25;;;3.10;100.00
17505;BME280;8870;50.950;11.762;2023-11-21T16:46:27;98786.69;;;3.08;100.00
17505;BME280;8870;50.950;11.762;2023-11-21T16:51:48;98784.44;;;3.02;100.00
17505;BME280;8870;50.950;11.762;2023-11-21T16:57:19;98788.03;;;3.01;100.00
17505;BME280;8870;50.950;11.762;2023-11-21T17:02:39;98802.31;;;3.00;100.00
17505;BME280;8870;50.950;11.762;2023-11-21T17:08:13;98801.69;;;2.97;100.00
17505;BME280;8870;50.950;11.762;2023-11-21T17:13:31;98810.91;;;2.91;100.00
17505;BME280;8870;50.950;11.762;2023-11-21T17:19:04;98813.59;;;2.91;100.00
17505;BME280;8870;50.950;11.762;2023-11-21T17:24:25;98826.06;;;2.90;100.00
17505;BME280;8870;50.950;11.762;2023-11-21T17:29:58;98822.06;;;2.83;100.00
17505;BME280;8870;50.950;11.762;2023-11-21T17:35:17;98839.09;;;2.81;100.00
17505;BME280;8870;50.950;11.762;2023-11-21T17:40:51;98835.91;;;2.75;100.00
17505;BME280;8870;50.950;11.762;2023-11-21T17:46:09;98852.72;;;2.76;100.00
17505;BME280;8870;50.950;11.762;2023-11-21T17:51:41;98844.41;;;2.68;100.00
17505;BME280;8870;50.950;11.762;2023-11-21T17:57:01;98854.78;;;2.58;100.00
17505;BME280;8870;50.950;11.762;2023-11-21T18:02:33;98862.22;;;2.53;100.00
17505;BME280;8870;50.950;11.762;2023-11-21T18:07:53;98866.03;;;2.49;100.00
17505;BME280;8870;50.950;11.762;2023-11-21T18:13:27;98883.13;;;2.44;100.00
17505;BME280;8870;50.950;11.762;2023-11-21T18:18:45;98879.81;;;2.41;100.00
17505;BME280;8870;50.950;11.762;2023-11-21T18:24:16;98882.56;;;2.39;100.00
17505;BME280;8870;50.950;11.762;2023-11-21T18:29:37;98891.50;;;2.38;100.00
17505;BME280;8870;50.950;11.762;2023-11-21T18:35:08;98900.50;;;2.36;100.00
17505;BME280;8870;50.950;11.762;2023-11-21T18:40:26;98914.84;;;2.33;100.00
17505;BME280;8870;50.950;11.762;2023-11-21T18:46:01;98913.53;;;2.26;100.00
17505;BME280;8870;50.950;11.762;2023-11-21T18:51:20;98909.66;;;2.17;100.00
17505;BME280;8870;50.950;11.762;2023-11-21T18:56:51;98907.28;;;2.12;100.00
17505;BME280;8870;50.950;11.762;2023-11-21T19:02:12;98912.13;;;2.06;100.00
17505;BME280;8870;50.950;11.762;2023-11-21T19:07:43;98931.84;;;2.02;100.00
17505;BME280;8870;50.950;11.762;2023-11-21T19:13:01;98927.78;;;1.96;100.00
17505;BME280;8870;50.950;11.762;2023-11-21T19:18:35;98930.94;;;1.88;100.00
17505;BME280;8870;50.950;11.762;2023-11-21T19:23:54;98945.50;;;1.81;100.00
17505;BME280;8870;50.950;11.762;2023-11-21T19:29:25;98955.66;;;1.74;100.00
17505;BME280;8870;50.950;11.762;2023-11-21T19:34:48;98950.91;;;1.65;100.00
17505;BME280;8870;50.950;11.762;2023-11-21T19:40:07;98955.53;;;1.61;100.00
17505;BME280;8870;50.950;11.762;2023-11-21T19:45:44;98958.47;;;1.57;100.00
17505;BME280;8870;50.950;11.762;2023-11-21T19:51:06;98955.13;;;1.53;100.00
17505;BME280;8870;50.950;11.762;2023-11-21T19:56:37;98957.03;;;1.51;100.00
17505;BME280;8870;50.950;11.762;2023-11-21T20:01:56;98962.41;;;1.49;100.00
17505;BME280;8870;50.950;11.762;2023-11-21T20:07:30;98967.06;;;1.46;100.00
17505;BME280;8870;50.950;11.762;2023-11-21T20:12:49;98972.69;;;1.86;100.00
17505;BME280;8870;50.950;11.762;2023-11-21T20:18:21;98976.56;;;2.09;100.00
17505;BME280;8870;50.950;11.762;2023-11-21T20:23:43;98976.47;;;2.25;100.00
17505;BME280;8870;50.950;11.762;2023-11-21T20:29:15;98973.34;;;2.33;100.00
17505;BME280;8870;50.950;11.762;2023-11-21T20:34:34;98963.09;;;2.41;100.00
17505;BME280;8870;50.950;11.762;2023-11-21T20:40:08;98945.34;;;2.42;100.00
17505;BME280;8870;50.950;11.762;2023-11-21T20:45:27;98944.09;;;2.47;100.00
17505;BME280;8870;50.950;11.762;2023-11-21T20:50:58;98943.44;;;2.44;100.00
17505;BME280;8870;50.950;11.762;2023-11-21T20:56:19;98948.34;;;2.50;100.00
17505;BME280;8870;50.950;11.762;2023-11-21T21:01:51;98949.59;;;2.44;100.00
17505;BME280;8870;50.950;11.762;2023-11-21T21:07:12;98968.38;;;2.70;100.00
17505;BME280;8870;50.950;11.762;2023-11-21T21:12:46;98982.47;;;3.00;100.00
17505;BME280;8870;50.950;11.762;2023-11-21T21:18:05;98975.44;;;2.99;100.00
17505;BME280;8870;50.950;11.762;2023-11-21T21:23:36;98975.56;;;2.97;100.00
17505;BME280;8870;50.950;11.762;2023-11-21T21:28:57;98971.81;;;3.00;100.00
17505;BME280;8870;50.950;11.762;2023-11-21T21:34:30;98975.22;;;2.74;100.00
17505;BME280;8870;50.950;11.762;2023-11-21T21:39:56;98973.72;;;2.56;100.00
17505;BME280;8870;50.950;11.762;2023-11-21T21:45:33;98991.03;;;2.34;100.00
17505;BME280;8870;50.950;11.762;2023-11-21T21:50:52;98994.81;;;2.15;100.00
17505;BME280;8870;50.950;11.762;2023-11-21T21:56:23;99006.09;;;2.05;100.00
17505;BME280;8870;50.950;11.762;2023-11-21T22:01:49;99022.44;;;1.98;100.00
17505;BME280;8870;50.950;11.762;2023-11-21T22:07:19;99016.78;;;1.89;100.00
17505;BME280;8870;50.950;11.762;2023-11-21T22:12:38;99012.22;;;1.76;100.00
17505;BME280;8870;50.950;11.762;2023-11-21T22:18:11;99002.13;;;1.67;100.00
17505;BME280;8870;50.950;11.762;2023-11-21T22:23:30;99021.13;;;1.75;100.00
17505;BME280;8870;50.950;11.762;2023-11-21T22:29:02;99022.06;;;1.74;100.00
17505;BME280;8870;50.950;11.762;2023-11-21T22:34:22;99023.88;;;1.74;100.00
17505;BME280;8870;50.950;11.762;2023-11-21T22:39:53;99029.09;;;1.75;100.00
17505;BME280;8870;50.950;11.762;2023-11-21T22:45:28;99047.69;;;1.75;100.00
17505;BME280;8870;50.950;11.762;2023-11-21T22:50:49;99051.13;;;1.77;100.00
17505;BME280;8870;50.950;11.762;2023-11-21T22:56:20;99057.53;;;1.73;100.00
17505;BME280;8870;50.950;11.762;2023-11-21T23:01:40;99064.84;;;1.69;100.00
17505;BME280;8870;50.950;11.762;2023-11-21T23:07:14;99077.84;;;1.74;100.00
17505;BME280;8870;50.950;11.762;2023-11-21T23:12:33;99066.06;;;1.64;100.00
17505;BME280;8870;50.950;11.762;2023-11-21T23:18:04;99080.28;;;1.63;100.00
17505;BME280;8870;50.950;11.762;2023-11-21T23:23:26;99084.38;;;1.68;100.00
17505;BME280;8870;50.950;11.762;2023-11-21T23:28:58;99091.13;;;1.74;100.00
17505;BME280;8870;50.950;11.762;2023-11-21T23:34:17;99096.44;;;1.74;100.00
17505;BME280;8870;50.950;11.762;2023-11-21T23:39:51;99096.72;;;1.69;100.00
17505;BME280;8870;50.950;11.762;2023-11-21T23:45:10;99090.56;;;1.69;100.00
17505;BME280;8870;50.950;11.762;2023-11-21T23:50:42;99106.06;;;1.61;100.00
17505;BME280;8870;50.950;11.762;2023-11-21T23:56:03;99111.63;;;1.56;100.00
